createdAt,value
2023-03-10T00:01:22.819Z,99.90
2023-03-10T00:03:50.246Z,99.90
2023-03-10T00:06:20.037Z,99.90
2023-03-10T00:08:47.190Z,99.90
2023-03-10T00:11:14.643Z,99.90
2023-03-10T00:13:41.401Z,99.90
2023-03-10T00:16:08.615Z,99.90
2023-03-10T00:18:35.406Z,99.90
2023-03-10T00:21:02.057Z,99.90
2023-03-10T00:23:28.701Z,99.90
2023-03-10T00:25:57.207Z,99.90
2023-03-10T00:28:24.926Z,99.90
2023-03-10T00:31:00.031Z,99.90
2023-03-10T00:33:27.062Z,99.90
2023-03-10T00:36:08.747Z,99.90
2023-03-10T00:38:36.694Z,99.90
2023-03-10T00:41:07.052Z,99.90
2023-03-10T00:43:34.849Z,99.90
2023-03-10T00:46:02.965Z,99.90
2023-03-10T00:48:29.953Z,99.90
2023-03-10T00:50:57.302Z,99.90
2023-03-10T00:53:24.316Z,99.90
2023-03-10T00:56:05.193Z,99.90
2023-03-10T00:58:32.521Z,99.90
2023-03-10T01:00:59.886Z,99.90
2023-03-10T01:03:27.670Z,99.90
2023-03-10T01:05:55.021Z,99.90
2023-03-10T01:08:21.988Z,99.90
2023-03-10T01:10:49.174Z,99.90
2023-03-10T01:13:18.056Z,99.90
2023-03-10T01:15:47.572Z,99.90
2023-03-10T01:18:15.359Z,99.90
2023-03-10T01:20:42.028Z,99.90
2023-03-10T01:23:17.819Z,99.90
2023-03-10T01:25:44.915Z,99.90
2023-03-10T01:28:11.736Z,99.90
2023-03-10T01:30:39.387Z,99.90
2023-03-10T01:33:06.488Z,99.90
2023-03-10T01:35:33.437Z,99.90
2023-03-10T01:38:00.176Z,99.90
2023-03-10T01:40:28.249Z,99.90
2023-03-10T01:43:20.783Z,99.90
2023-03-10T01:45:47.399Z,99.90
2023-03-10T01:48:16.441Z,99.90
2023-03-10T01:50:48.463Z,99.90
2023-03-10T01:53:18.434Z,99.90
2023-03-10T01:55:52.931Z,99.90
2023-03-10T01:58:22.859Z,99.90
2023-03-10T02:00:53.341Z,99.90
2023-03-10T02:03:26.764Z,99.90
2023-03-10T02:06:00.799Z,99.90
2023-03-10T02:08:31.693Z,99.90
2023-03-10T02:10:59.374Z,99.90
2023-03-10T02:13:26.041Z,99.90
2023-03-10T02:15:53.266Z,99.90
2023-03-10T02:18:21.785Z,99.90
2023-03-10T02:21:16.110Z,99.90
2023-03-10T02:24:01.354Z,99.90
2023-03-10T02:26:52.561Z,99.90
2023-03-10T02:29:58.084Z,99.90
2023-03-10T02:32:26.998Z,99.90
2023-03-10T02:34:53.682Z,99.90
2023-03-10T02:37:23.289Z,99.90
2023-03-10T02:39:50.208Z,99.90
2023-03-10T02:42:18.120Z,99.90
2023-03-10T02:44:45.801Z,99.90
2023-03-10T02:47:12.569Z,99.90
2023-03-10T02:49:40.652Z,99.90
2023-03-10T02:52:12.522Z,99.90
2023-03-10T02:54:39.208Z,99.90
2023-03-10T02:57:05.974Z,99.90
2023-03-10T02:59:32.653Z,99.90
2023-03-10T03:01:59.238Z,99.90
2023-03-10T03:04:25.922Z,99.90
2023-03-10T03:06:52.573Z,99.90
2023-03-10T03:09:19.219Z,99.90
2023-03-10T03:11:46.003Z,99.90
2023-03-10T03:14:12.621Z,99.90
2023-03-10T03:16:39.465Z,99.90
2023-03-10T03:19:06.098Z,99.90
2023-03-10T03:21:32.792Z,99.90
2023-03-10T03:23:59.421Z,99.90
2023-03-10T03:26:29.570Z,99.90
2023-03-10T03:28:56.454Z,99.90
2023-03-10T03:31:25.178Z,99.90
2023-03-10T03:33:51.869Z,99.90
2023-03-10T03:36:18.568Z,99.90
2023-03-10T03:38:45.306Z,99.90
2023-03-10T03:41:12.048Z,99.90
2023-03-10T03:43:38.748Z,99.90
2023-03-10T03:46:05.744Z,99.90
2023-03-10T03:48:34.607Z,99.90
2023-03-10T03:51:02.196Z,99.90
2023-03-10T03:53:29.288Z,99.90
2023-03-10T03:55:56.022Z,99.90
2023-03-10T03:58:22.687Z,99.90
2023-03-10T04:00:51.690Z,99.90
2023-03-10T04:03:19.096Z,99.90
2023-03-10T04:05:45.824Z,99.90
2023-03-10T04:08:13.371Z,99.90
2023-03-10T04:10:40.177Z,99.90
2023-03-10T04:13:07.134Z,99.90
2023-03-10T04:15:33.938Z,99.90
2023-03-10T04:18:00.682Z,99.90
2023-03-10T04:20:27.397Z,99.90
2023-03-10T04:22:54.417Z,99.90
2023-03-10T04:25:21.185Z,99.90
2023-03-10T04:27:47.857Z,99.90
2023-03-10T04:30:15.467Z,99.90
2023-03-10T04:32:42.341Z,99.90
2023-03-10T04:35:11.383Z,99.90
2023-03-10T04:37:38.161Z,99.90
2023-03-10T04:40:09.346Z,99.90
2023-03-10T04:42:36.468Z,99.90
2023-03-10T04:45:03.360Z,99.90
2023-03-10T04:47:29.986Z,99.90
2023-03-10T04:49:56.644Z,99.90
2023-03-10T04:52:23.350Z,99.90
2023-03-10T04:54:49.952Z,99.90
2023-03-10T04:57:16.617Z,99.90
2023-03-10T04:59:43.620Z,99.90
2023-03-10T05:02:10.528Z,99.90
2023-03-10T05:04:37.361Z,99.90
2023-03-10T05:07:04.155Z,99.90
2023-03-10T05:09:30.841Z,99.90
2023-03-10T05:11:57.504Z,99.90
2023-03-10T05:14:24.166Z,99.90
2023-03-10T05:16:50.844Z,99.90
2023-03-10T05:19:17.723Z,99.90
2023-03-10T05:21:44.450Z,99.90
2023-03-10T05:24:11.107Z,99.90
2023-03-10T05:26:37.780Z,99.90
2023-03-10T05:29:04.863Z,99.90
2023-03-10T05:31:31.601Z,99.90
2023-03-10T05:33:58.314Z,99.90
2023-03-10T05:36:25.009Z,99.90
2023-03-10T05:38:51.736Z,99.90
2023-03-10T05:41:18.758Z,99.90
2023-03-10T05:43:45.547Z,99.90
2023-03-10T05:46:12.337Z,99.90
2023-03-10T05:48:39.449Z,99.90
2023-03-10T05:51:10.014Z,99.90
2023-03-10T05:53:37.109Z,99.90
2023-03-10T05:56:09.930Z,99.90
2023-03-10T05:58:37.260Z,99.90
2023-03-10T06:01:04.664Z,99.90
2023-03-10T06:03:31.707Z,99.90
2023-03-10T06:05:59.160Z,99.90
2023-03-10T06:08:28.087Z,99.90
2023-03-10T06:10:54.852Z,99.90
2023-03-10T06:13:21.751Z,99.90
2023-03-10T06:15:50.368Z,99.90
2023-03-10T06:18:17.728Z,99.90
2023-03-10T06:20:44.540Z,99.90
2023-03-10T06:23:11.307Z,99.90
2023-03-10T06:25:38.145Z,99.90
2023-03-10T06:28:05.964Z,99.90
2023-03-10T06:30:33.640Z,99.90
2023-03-10T06:33:00.958Z,99.90
2023-03-10T06:35:29.014Z,99.90
2023-03-10T06:37:55.864Z,99.90
2023-03-10T06:40:22.650Z,99.90
2023-03-10T06:42:49.269Z,99.90
2023-03-10T06:45:17.088Z,99.90
2023-03-10T06:47:44.496Z,99.90
2023-03-10T06:50:12.054Z,99.90
2023-03-10T06:52:38.706Z,99.90
2023-03-10T06:55:05.993Z,99.90
2023-03-10T06:57:33.493Z,99.90
2023-03-10T07:00:00.129Z,99.90
2023-03-10T07:02:26.848Z,99.90
2023-03-10T07:04:53.550Z,99.90
2023-03-10T07:07:20.466Z,99.90
2023-03-10T07:09:47.245Z,99.90
2023-03-10T07:12:13.934Z,99.90
2023-03-10T07:14:40.632Z,99.90
2023-03-10T07:17:07.393Z,99.90
2023-03-10T07:19:34.260Z,99.90
2023-03-10T07:22:00.944Z,99.90
2023-03-10T07:24:27.553Z,99.90
2023-03-10T07:26:54.438Z,99.90
2023-03-10T07:29:21.054Z,99.90
2023-03-10T07:31:47.677Z,99.90
2023-03-10T07:34:14.394Z,99.90
2023-03-10T07:36:41.185Z,99.90
2023-03-10T07:39:08.135Z,99.90
2023-03-10T07:41:34.795Z,99.90
2023-03-10T07:44:05.500Z,99.90
2023-03-10T07:46:32.863Z,99.90
2023-03-10T07:49:05.225Z,99.90
2023-03-10T07:51:32.067Z,99.90
2023-03-10T07:54:04.435Z,99.90
2023-03-10T07:56:31.276Z,99.90
2023-03-10T07:58:59.544Z,99.90
2023-03-10T08:01:26.517Z,99.90
2023-03-10T08:03:55.344Z,99.90
2023-03-10T08:06:25.899Z,99.90
2023-03-10T08:08:53.405Z,99.90
2023-03-10T08:11:21.322Z,99.90
2023-03-10T08:13:48.547Z,99.90
2023-03-10T08:16:17.109Z,99.90
2023-03-10T08:18:44.494Z,99.90
2023-03-10T08:21:11.511Z,99.90
2023-03-10T08:23:39.390Z,99.90
2023-03-10T08:26:08.583Z,99.90
2023-03-10T08:28:37.603Z,99.90
2023-03-10T08:31:16.641Z,99.90
2023-03-10T08:33:44.561Z,99.90
2023-03-10T08:36:20.120Z,99.90
2023-03-10T08:38:47.847Z,99.90
2023-03-10T08:41:22.861Z,99.90
2023-03-10T08:43:52.520Z,99.90
2023-03-10T08:46:20.743Z,99.90
2023-03-10T08:48:49.258Z,99.90
2023-03-10T08:51:16.862Z,99.90
2023-03-10T08:53:47.144Z,99.90
2023-03-10T08:56:14.565Z,99.90
2023-03-10T08:58:41.509Z,99.90
2023-03-10T09:01:08.228Z,99.90
2023-03-10T09:03:39.987Z,99.90
2023-03-10T09:06:09.334Z,99.90
2023-03-10T09:08:36.892Z,98.70
2023-03-10T09:11:04.146Z,97.90
2023-03-10T09:13:30.877Z,98.40
2023-03-10T09:15:57.631Z,97.70
2023-03-10T09:18:24.660Z,98.80
2023-03-10T09:20:52.211Z,98.80
2023-03-10T09:23:19.795Z,99.40
2023-03-10T09:25:47.040Z,96.40
2023-03-10T09:28:14.690Z,90.90
2023-03-10T09:30:43.062Z,88.50
2023-03-10T09:33:16.966Z,87.50
2023-03-10T09:35:52.690Z,89.10
2023-03-10T09:38:25.361Z,91.10
2023-03-10T09:41:21.004Z,92.80
2023-03-10T09:44:07.592Z,93.70
2023-03-10T09:46:50.564Z,93.80
2023-03-10T09:49:31.636Z,93.40
2023-03-10T09:52:00.812Z,95.20
2023-03-10T09:55:05.358Z,94.80
2023-03-10T09:57:33.436Z,93.30
2023-03-10T10:00:08.463Z,93.30
2023-03-10T10:02:45.843Z,94.10
2023-03-10T10:05:34.454Z,94.10
2023-03-10T10:08:06.294Z,93.10
2023-03-10T10:10:36.956Z,93.30
2023-03-10T10:13:15.892Z,93.10
2023-03-10T10:15:50.057Z,90.60
2023-03-10T10:18:28.381Z,91.70
2023-03-10T10:21:28.186Z,92.20
2023-03-10T10:23:59.262Z,91.00
2023-03-10T10:26:27.618Z,89.20
2023-03-10T10:29:00.246Z,88.20
2023-03-10T10:31:33.429Z,87.90
2023-03-10T10:34:01.618Z,87.20
2023-03-10T10:36:32.913Z,85.20
2023-03-10T10:39:00.207Z,87.10
2023-03-10T10:41:33.830Z,87.70
2023-03-10T10:44:08.260Z,84.70
2023-03-10T10:46:35.406Z,86.20
2023-03-10T10:49:02.319Z,85.90
2023-03-10T10:51:35.938Z,85.10
2023-03-10T10:54:22.431Z,83.10
2023-03-10T10:56:58.457Z,86.90
2023-03-10T10:59:33.651Z,85.60
2023-03-10T11:02:20.791Z,87.30
2023-03-10T11:04:47.568Z,87.60
2023-03-10T11:07:20.089Z,87.00
2023-03-10T11:09:47.959Z,86.80
2023-03-10T11:12:34.814Z,87.30
2023-03-10T11:15:30.017Z,85.70
2023-03-10T11:18:17.872Z,86.10
2023-03-10T11:21:08.152Z,86.70
2023-03-10T11:23:55.085Z,84.80
2023-03-10T11:26:37.178Z,87.20
2023-03-10T11:29:18.828Z,90.10
2023-03-10T11:32:06.929Z,90.70
2023-03-10T11:38:05.363Z,93.70
2023-03-10T11:40:41.736Z,94.80
2023-03-10T11:43:34.979Z,96.70
2023-03-10T11:46:13.234Z,98.00
2023-03-10T11:49:02.780Z,96.10
2023-03-10T11:51:46.236Z,93.10
2023-03-10T11:54:19.822Z,94.00
2023-03-10T11:56:48.466Z,93.30
2023-03-10T11:59:25.936Z,94.40
2023-03-10T12:02:24.595Z,89.90
2023-03-10T12:04:58.895Z,89.50
2023-03-10T12:07:31.661Z,85.30
2023-03-10T12:10:00.756Z,85.70
2023-03-10T12:12:35.132Z,88.40
2023-03-10T12:15:11.366Z,82.70
2023-03-10T12:17:40.038Z,83.70
2023-03-10T12:20:15.975Z,77.20
2023-03-10T12:22:53.664Z,77.60
2023-03-10T12:25:29.892Z,75.50
2023-03-10T12:28:32.773Z,83.50
2023-03-10T12:31:04.446Z,74.80
2023-03-10T12:33:31.209Z,75.20
2023-03-10T12:36:00.873Z,70.90
2023-03-10T12:38:49.813Z,69.00
2023-03-10T12:41:47.157Z,70.70
2023-03-10T12:44:29.200Z,72.20
2023-03-10T12:46:59.412Z,71.80
2023-03-10T12:49:52.109Z,73.20
2023-03-10T12:52:40.054Z,73.10
2023-03-10T12:55:27.057Z,76.30
2023-03-10T12:58:02.696Z,75.10
2023-03-10T13:00:47.604Z,74.90
2023-03-10T13:03:42.045Z,77.60
2023-03-10T13:06:40.366Z,75.60
2023-03-10T13:09:29.543Z,74.90
2023-03-10T13:12:07.846Z,74.30
2023-03-10T13:14:47.027Z,75.20
2023-03-10T13:17:29.175Z,74.90
2023-03-10T13:20:12.021Z,77.60
2023-03-10T13:22:39.093Z,79.20
2023-03-10T13:25:16.484Z,80.60
2023-03-10T13:27:44.168Z,83.30
2023-03-10T13:30:13.620Z,86.40
2023-03-10T13:32:40.768Z,87.70
2023-03-10T13:35:38.792Z,88.30
2023-03-10T13:38:20.748Z,88.00
2023-03-10T13:40:50.141Z,87.40
2023-03-10T13:43:35.309Z,88.40
2023-03-10T13:46:04.323Z,89.60
2023-03-10T13:48:32.394Z,85.90
2023-03-10T13:51:05.272Z,86.50
2023-03-10T13:53:32.167Z,84.00
2023-03-10T13:55:58.924Z,82.80
2023-03-10T13:58:27.146Z,84.00
2023-03-10T14:00:56.366Z,84.30
2023-03-10T14:03:23.494Z,84.80
2023-03-10T14:05:50.213Z,83.10
2023-03-10T14:08:28.808Z,80.40
2023-03-10T14:11:30.993Z,81.50
2023-03-10T14:13:58.159Z,82.40
2023-03-10T14:16:49.902Z,81.90
2023-03-10T14:19:47.460Z,81.70
2023-03-10T14:22:35.697Z,80.70
2023-03-10T14:25:06.716Z,82.00
2023-03-10T14:27:35.656Z,80.40
2023-03-10T14:30:10.679Z,81.60
2023-03-10T14:32:37.469Z,78.40
2023-03-10T14:35:11.635Z,79.50
2023-03-10T14:37:38.514Z,80.70
2023-03-10T14:40:06.659Z,82.00
2023-03-10T14:42:33.966Z,80.40
2023-03-10T14:45:13.388Z,78.40
2023-03-10T14:47:40.244Z,79.60
2023-03-10T14:50:12.305Z,81.00
2023-03-10T14:52:39.032Z,81.00
2023-03-10T14:55:08.062Z,78.70
2023-03-10T14:57:35.199Z,78.60
2023-03-10T15:00:01.905Z,79.30
2023-03-10T15:02:30.548Z,80.90
2023-03-10T15:04:57.299Z,78.40
2023-03-10T15:07:24.097Z,80.50
2023-03-10T15:10:08.819Z,78.00
2023-03-10T15:12:38.246Z,72.80
2023-03-10T15:15:07.624Z,73.40
2023-03-10T15:17:34.425Z,73.80
2023-03-10T15:20:01.195Z,75.30
2023-03-10T15:22:27.873Z,76.80
2023-03-10T15:24:54.567Z,77.60
2023-03-10T15:27:21.203Z,79.70
2023-03-10T15:29:47.939Z,82.10
2023-03-10T15:32:14.641Z,82.80
2023-03-10T15:34:41.354Z,83.10
2023-03-10T15:37:08.570Z,84.80
2023-03-10T15:39:37.249Z,84.00
2023-03-10T15:42:04.454Z,83.30
2023-03-10T15:44:31.162Z,82.10
2023-03-10T15:46:58.009Z,81.30
2023-03-10T15:49:24.760Z,81.80
2023-03-10T15:51:51.471Z,81.50
2023-03-10T15:54:18.338Z,80.20
2023-03-10T15:56:45.151Z,79.50
2023-03-10T15:59:12.153Z,81.70
2023-03-10T16:01:39.781Z,80.60
2023-03-10T16:04:06.532Z,80.70
2023-03-10T16:06:34.186Z,82.10
2023-03-10T16:09:01.175Z,84.40
2023-03-10T16:11:28.096Z,86.20
2023-03-10T16:13:54.806Z,88.20
2023-03-10T16:16:23.639Z,89.10
2023-03-10T16:18:51.164Z,89.80
2023-03-10T16:21:18.625Z,91.70
2023-03-10T16:23:45.832Z,93.10
2023-03-10T16:26:19.081Z,94.80
2023-03-10T16:28:52.510Z,96.20
2023-03-10T16:31:21.501Z,97.80
2023-03-10T16:33:50.943Z,98.40
2023-03-10T16:36:20.115Z,99.20
2023-03-10T16:38:47.528Z,99.50
2023-03-10T16:41:14.201Z,99.90
2023-03-10T16:43:41.226Z,99.90
2023-03-10T16:46:24.909Z,99.90
2023-03-10T16:48:53.892Z,99.90
2023-03-10T16:51:29.827Z,99.90
2023-03-10T16:53:59.547Z,99.90
2023-03-10T16:56:28.192Z,99.90
2023-03-10T16:58:55.824Z,99.90
2023-03-10T17:01:26.207Z,99.90
2023-03-10T17:03:54.136Z,99.90
2023-03-10T17:06:24.197Z,99.90
2023-03-10T17:08:52.454Z,99.90
2023-03-10T17:11:25.373Z,99.90
2023-03-10T17:13:54.367Z,99.90
2023-03-10T17:16:23.562Z,99.90
2023-03-10T17:18:50.740Z,99.90
2023-03-10T17:21:22.737Z,99.90
2023-03-10T17:23:49.904Z,99.90
2023-03-10T17:26:18.517Z,99.90
2023-03-10T17:28:47.842Z,99.90
2023-03-10T17:31:26.190Z,99.90
2023-03-10T17:33:57.189Z,96.30
2023-03-10T17:36:23.953Z,93.30
2023-03-10T17:38:55.772Z,90.90
2023-03-10T17:41:22.748Z,88.10
2023-03-10T17:43:49.511Z,87.60
2023-03-10T17:46:19.981Z,89.30
2023-03-10T17:48:47.164Z,88.60
2023-03-10T17:51:18.767Z,89.40
2023-03-10T17:53:46.761Z,89.60
2023-03-10T17:56:14.287Z,88.90
2023-03-10T17:58:41.122Z,87.90
2023-03-10T18:01:13.771Z,87.10
2023-03-10T18:03:41.200Z,86.80
2023-03-10T18:06:23.118Z,84.90
2023-03-10T18:08:50.912Z,87.10
2023-03-10T18:11:18.881Z,85.90
2023-03-10T18:13:45.850Z,84.40
2023-03-10T18:16:21.969Z,85.50
2023-03-10T18:18:48.863Z,86.70
2023-03-10T18:21:16.877Z,86.80
2023-03-10T18:23:43.988Z,86.20
2023-03-10T18:26:13.338Z,85.30
2023-03-10T18:28:40.447Z,85.90
2023-03-10T18:31:09.050Z,85.70
2023-03-10T18:33:37.173Z,85.30
2023-03-10T18:36:06.569Z,83.30
2023-03-10T18:38:33.556Z,84.00
2023-03-10T18:41:02.126Z,81.70
2023-03-10T18:43:29.573Z,83.30
2023-03-10T18:45:56.442Z,82.90
2023-03-10T18:48:28.300Z,83.10
2023-03-10T18:50:56.694Z,84.50
2023-03-10T18:53:24.429Z,83.80
2023-03-10T18:55:51.280Z,83.50
2023-03-10T18:58:18.117Z,83.30
2023-03-10T19:00:44.937Z,83.40
2023-03-10T19:03:13.528Z,83.40
2023-03-10T19:05:40.999Z,83.60
2023-03-10T19:08:08.538Z,85.40
2023-03-10T19:10:35.176Z,85.30
2023-03-10T19:13:02.158Z,85.10
2023-03-10T19:15:29.043Z,86.00
2023-03-10T19:17:56.171Z,86.00
2023-03-10T19:20:23.021Z,87.40
2023-03-10T19:22:51.142Z,83.00
2023-03-10T19:25:19.707Z,81.30
2023-03-10T19:27:46.531Z,82.30
2023-03-10T19:30:17.113Z,80.50
2023-03-10T19:32:45.041Z,77.70
2023-03-10T19:35:12.839Z,76.80
2023-03-10T19:37:43.280Z,78.20
2023-03-10T19:40:14.518Z,79.90
2023-03-10T19:42:42.851Z,80.00
2023-03-10T19:45:14.881Z,80.10
2023-03-10T19:47:42.273Z,79.40
2023-03-10T19:50:11.726Z,80.30
2023-03-10T19:52:43.224Z,81.40
2023-03-10T19:55:14.385Z,80.80
2023-03-10T19:57:41.031Z,82.20
2023-03-10T20:00:13.581Z,81.60
2023-03-10T20:02:44.577Z,81.90
2023-03-10T20:05:15.280Z,82.20
2023-03-10T20:07:47.002Z,82.20
2023-03-10T20:10:16.168Z,83.50
2023-03-10T20:12:43.045Z,83.70
2023-03-10T20:15:10.312Z,85.30
2023-03-10T20:17:37.291Z,85.20
2023-03-10T20:20:10.100Z,86.20
2023-03-10T20:22:41.166Z,86.00
2023-03-10T20:25:10.308Z,85.20
2023-03-10T20:27:37.836Z,85.70
2023-03-10T20:30:12.861Z,86.00
2023-03-10T20:32:39.708Z,86.10
2023-03-10T20:35:06.932Z,84.60
2023-03-10T20:37:35.777Z,85.00
2023-03-10T20:40:05.705Z,83.60
2023-03-10T20:42:36.035Z,83.80
2023-03-10T20:45:04.585Z,84.60
2023-03-10T20:47:31.350Z,84.50
2023-03-10T20:49:58.181Z,84.00
2023-03-10T20:52:24.910Z,84.40
2023-03-10T20:54:54.834Z,83.80
2023-03-10T20:57:21.700Z,83.90
2023-03-10T20:59:48.550Z,84.50
2023-03-10T21:02:16.850Z,84.10
2023-03-10T21:04:44.074Z,83.10
2023-03-10T21:07:10.886Z,83.00
2023-03-10T21:09:37.638Z,82.90
2023-03-10T21:12:04.565Z,81.90
2023-03-10T21:14:31.209Z,82.20
2023-03-10T21:16:59.956Z,83.00
2023-03-10T21:19:27.642Z,83.50
2023-03-10T21:21:54.357Z,83.90
2023-03-10T21:24:21.639Z,83.70
2023-03-10T21:26:48.406Z,84.10
2023-03-10T21:29:15.094Z,84.40
2023-03-10T21:31:41.812Z,84.60
2023-03-10T21:34:08.506Z,85.30
2023-03-10T21:36:35.144Z,84.90
2023-03-10T21:39:02.908Z,85.70
2023-03-10T21:41:30.290Z,85.20
2023-03-10T21:43:58.643Z,85.00
2023-03-10T21:46:25.964Z,85.50
2023-03-10T21:48:52.776Z,85.50
2023-03-10T21:51:23.377Z,86.10
2023-03-10T21:53:51.820Z,85.70
2023-03-10T21:56:19.679Z,85.50
2023-03-10T21:58:46.862Z,84.80
2023-03-10T22:01:16.477Z,85.40
2023-03-10T22:03:44.332Z,85.00
2023-03-10T22:06:11.278Z,84.70
2023-03-10T22:08:39.021Z,83.90
2023-03-10T22:11:08.631Z,83.70
2023-03-10T22:13:39.304Z,84.70
2023-03-10T22:16:07.655Z,85.50
2023-03-10T22:18:34.375Z,86.40
2023-03-10T22:21:01.012Z,86.50
2023-03-10T22:23:27.865Z,87.30
2023-03-10T22:25:55.372Z,87.90
2023-03-10T22:28:22.075Z,86.70
2023-03-10T22:30:48.704Z,86.10
2023-03-10T22:33:15.346Z,86.50
2023-03-10T22:35:42.082Z,85.30
2023-03-10T22:38:08.778Z,86.00
2023-03-10T22:40:36.133Z,85.90
2023-03-10T22:43:02.817Z,85.70
2023-03-10T22:45:31.896Z,85.10
2023-03-10T22:48:01.170Z,85.30
2023-03-10T22:50:34.517Z,85.90
2023-03-10T22:53:03.185Z,86.20
2023-03-10T22:55:35.552Z,86.50
2023-03-10T22:58:07.170Z,85.40
2023-03-10T23:00:34.967Z,85.80
2023-03-10T23:03:02.485Z,86.00
2023-03-10T23:05:29.250Z,86.70
2023-03-10T23:07:56.048Z,86.30
2023-03-10T23:10:29.196Z,85.80
2023-03-10T23:12:59.179Z,86.40
2023-03-10T23:15:28.521Z,85.70
2023-03-10T23:17:56.217Z,86.10
2023-03-10T23:20:30.135Z,85.10
2023-03-10T23:22:58.786Z,85.20
2023-03-10T23:25:31.660Z,84.90
2023-03-10T23:27:58.580Z,83.50
2023-03-10T23:30:25.792Z,82.80
2023-03-10T23:32:53.418Z,83.30
2023-03-10T23:35:23.719Z,83.40
2023-03-10T23:37:50.636Z,83.30
2023-03-10T23:40:19.285Z,82.70
2023-03-10T23:42:46.690Z,82.70
2023-03-10T23:45:17.258Z,82.10
2023-03-10T23:47:45.074Z,82.70
2023-03-10T23:50:20.461Z,81.90
2023-03-10T23:52:47.475Z,82.40
2023-03-10T23:55:23.118Z,82.00
2023-03-10T23:57:50.477Z,82.90
